sensor_id;sensor_type;location;lat;lon;timestamp;P1;durP1;ratioP1;P2;durP2;ratioP2
6497;SDS011;3282;48.358;10.958;2022-12-13T00:01:22;31.05;;;15.35;;
6497;SDS011;3282;48.358;10.958;2022-12-13T00:03:53;51.50;;;23.10;;
6497;SDS011;3282;48.358;10.958;2022-12-13T00:06:24;85.38;;;35.80;;
6497;SDS011;3282;48.358;10.958;2022-12-13T00:08:51;48.13;;;21.25;;
6497;SDS011;3282;48.358;10.958;2022-12-13T00:11:18;37.70;;;17.33;;
6497;SDS011;3282;48.358;10.958;2022-12-13T00:13:45;44.95;;;21.05;;
6497;SDS011;3282;48.358;10.958;2022-12-13T00:16:14;43.30;;;19.60;;
6497;SDS011;3282;48.358;10.958;2022-12-13T00:18:46;47.10;;;20.50;;
6497;SDS011;3282;48.358;10.958;2022-12-13T00:21:15;41.88;;;19.38;;
6497;SDS011;3282;48.358;10.958;2022-12-13T00:23:44;43.72;;;21.02;;
6497;SDS011;3282;48.358;10.958;2022-12-13T00:26:13;41.70;;;20.98;;
6497;SDS011;3282;48.358;10.958;2022-12-13T00:28:41;38.28;;;18.48;;
6497;SDS011;3282;48.358;10.958;2022-12-13T00:31:09;36.83;;;17.35;;
6497;SDS011;3282;48.358;10.958;2022-12-13T00:33:56;33.47;;;15.95;;
6497;SDS011;3282;48.358;10.958;2022-12-13T00:36:23;37.25;;;16.85;;
6497;SDS011;3282;48.358;10.958;2022-12-13T00:38:50;32.90;;;15.05;;
6497;SDS011;3282;48.358;10.958;2022-12-13T00:41:30;33.78;;;16.55;;
6497;SDS011;3282;48.358;10.958;2022-12-13T00:43:58;40.30;;;18.58;;
6497;SDS011;3282;48.358;10.958;2022-12-13T00:46:26;40.35;;;18.40;;
6497;SDS011;3282;48.358;10.958;2022-12-13T00:48:54;37.30;;;17.48;;
6497;SDS011;3282;48.358;10.958;2022-12-13T00:51:25;34.58;;;16.05;;
6497;SDS011;3282;48.358;10.958;2022-12-13T00:53:54;34.35;;;15.60;;
6497;SDS011;3282;48.358;10.958;2022-12-13T00:56:23;35.38;;;15.88;;
6497;SDS011;3282;48.358;10.958;2022-12-13T00:58:54;33.90;;;14.90;;
6497;SDS011;3282;48.358;10.958;2022-12-13T01:01:23;36.63;;;16.05;;
6497;SDS011;3282;48.358;10.958;2022-12-13T01:03:56;29.40;;;15.38;;
6497;SDS011;3282;48.358;10.958;2022-12-13T01:06:41;33.95;;;15.70;;
6497;SDS011;3282;48.358;10.958;2022-12-13T01:09:17;30.92;;;15.65;;
6497;SDS011;3282;48.358;10.958;2022-12-13T01:11:45;30.65;;;14.98;;
6497;SDS011;3282;48.358;10.958;2022-12-13T01:14:13;33.17;;;15.30;;
6497;SDS011;3282;48.358;10.958;2022-12-13T01:16:39;35.13;;;15.32;;
6497;SDS011;3282;48.358;10.958;2022-12-13T01:19:06;34.35;;;16.05;;
6497;SDS011;3282;48.358;10.958;2022-12-13T01:21:33;32.45;;;15.52;;
6497;SDS011;3282;48.358;10.958;2022-12-13T01:24:00;32.33;;;15.18;;
6497;SDS011;3282;48.358;10.958;2022-12-13T01:26:31;34.58;;;15.27;;
6497;SDS011;3282;48.358;10.958;2022-12-13T01:28:59;33.28;;;14.90;;
6497;SDS011;3282;48.358;10.958;2022-12-13T01:31:26;34.13;;;15.77;;
6497;SDS011;3282;48.358;10.958;2022-12-13T01:33:52;30.38;;;14.52;;
6497;SDS011;3282;48.358;10.958;2022-12-13T01:36:20;31.83;;;15.38;;
6497;SDS011;3282;48.358;10.958;2022-12-13T01:38:53;32.45;;;14.70;;
6497;SDS011;3282;48.358;10.958;2022-12-13T01:41:24;30.80;;;15.32;;
6497;SDS011;3282;48.358;10.958;2022-12-13T01:43:54;32.17;;;15.20;;
6497;SDS011;3282;48.358;10.958;2022-12-13T01:46:22;31.83;;;15.32;;
6497;SDS011;3282;48.358;10.958;2022-12-13T01:51:47;31.85;;;14.63;;
6497;SDS011;3282;48.358;10.958;2022-12-13T01:54:18;35.03;;;15.45;;
6497;SDS011;3282;48.358;10.958;2022-12-13T01:56:59;34.85;;;15.90;;
6497;SDS011;3282;48.358;10.958;2022-12-13T02:07:47;30.45;;;14.32;;
6497;SDS011;3282;48.358;10.958;2022-12-13T02:10:14;34.97;;;14.93;;
6497;SDS011;3282;48.358;10.958;2022-12-13T02:12:41;35.95;;;16.63;;
6497;SDS011;3282;48.358;10.958;2022-12-13T02:15:12;35.95;;;15.98;;
6497;SDS011;3282;48.358;10.958;2022-12-13T02:17:51;37.80;;;15.82;;
6497;SDS011;3282;48.358;10.958;2022-12-13T02:20:31;34.95;;;15.80;;
6497;SDS011;3282;48.358;10.958;2022-12-13T02:32:27;33.72;;;15.60;;
6497;SDS011;3282;48.358;10.958;2022-12-13T02:41:05;33.75;;;15.52;;
6497;SDS011;3282;48.358;10.958;2022-12-13T02:43:15;34.40;;;15.32;;
6497;SDS011;3282;48.358;10.958;2022-12-13T02:45:48;35.00;;;15.40;;
6497;SDS011;3282;48.358;10.958;2022-12-13T02:48:18;34.88;;;15.95;;
6497;SDS011;3282;48.358;10.958;2022-12-13T02:50:49;33.97;;;15.77;;
6497;SDS011;3282;48.358;10.958;2022-12-13T02:53:17;34.50;;;15.15;;
6497;SDS011;3282;48.358;10.958;2022-12-13T02:55:46;37.35;;;16.55;;
6497;SDS011;3282;48.358;10.958;2022-12-13T02:58:14;32.75;;;15.38;;
6497;SDS011;3282;48.358;10.958;2022-12-13T03:13:02;35.50;;;15.82;;
6497;SDS011;3282;48.358;10.958;2022-12-13T03:15:28;34.13;;;15.52;;
6497;SDS011;3282;48.358;10.958;2022-12-13T03:18:04;34.80;;;16.42;;
6497;SDS011;3282;48.358;10.958;2022-12-13T03:20:44;32.08;;;15.90;;
6497;SDS011;3282;48.358;10.958;2022-12-13T03:23:12;34.85;;;15.75;;
6497;SDS011;3282;48.358;10.958;2022-12-13T03:25:39;36.55;;;16.33;;
6497;SDS011;3282;48.358;10.958;2022-12-13T03:28:06;36.22;;;15.77;;
6497;SDS011;3282;48.358;10.958;2022-12-13T03:30:32;33.55;;;15.60;;
6497;SDS011;3282;48.358;10.958;2022-12-13T03:32:59;33.92;;;15.40;;
6497;SDS011;3282;48.358;10.958;2022-12-13T03:35:26;34.67;;;15.50;;
6497;SDS011;3282;48.358;10.958;2022-12-13T03:38:00;37.10;;;16.30;;
6497;SDS011;3282;48.358;10.958;2022-12-13T03:40:27;33.95;;;15.32;;
6497;SDS011;3282;48.358;10.958;2022-12-13T03:42:55;32.83;;;15.15;;
6497;SDS011;3282;48.358;10.958;2022-12-13T03:45:21;35.70;;;16.50;;
6497;SDS011;3282;48.358;10.958;2022-12-13T03:47:48;33.70;;;15.13;;
6497;SDS011;3282;48.358;10.958;2022-12-13T03:50:14;35.15;;;15.15;;
6497;SDS011;3282;48.358;10.958;2022-12-13T03:52:57;34.80;;;15.90;;
6497;SDS011;3282;48.358;10.958;2022-12-13T03:55:25;36.88;;;16.00;;
6497;SDS011;3282;48.358;10.958;2022-12-13T03:57:51;34.53;;;15.80;;
6497;SDS011;3282;48.358;10.958;2022-12-13T04:00:18;33.90;;;15.35;;
6497;SDS011;3282;48.358;10.958;2022-12-13T04:02:45;31.65;;;14.85;;
6497;SDS011;3282;48.358;10.958;2022-12-13T04:05:11;33.90;;;15.50;;
6497;SDS011;3282;48.358;10.958;2022-12-13T04:07:38;35.60;;;15.95;;
6497;SDS011;3282;48.358;10.958;2022-12-13T04:10:13;34.35;;;15.68;;
6497;SDS011;3282;48.358;10.958;2022-12-13T04:12:52;35.25;;;15.90;;
6497;SDS011;3282;48.358;10.958;2022-12-13T04:15:37;31.35;;;14.75;;
6497;SDS011;3282;48.358;10.958;2022-12-13T04:18:04;36.33;;;15.05;;
6497;SDS011;3282;48.358;10.958;2022-12-13T04:20:31;34.30;;;15.55;;
6497;SDS011;3282;48.358;10.958;2022-12-13T04:22:57;34.35;;;15.07;;
6497;SDS011;3282;48.358;10.958;2022-12-13T04:25:25;32.15;;;14.55;;
6497;SDS011;3282;48.358;10.958;2022-12-13T04:27:51;35.22;;;15.18;;
6497;SDS011;3282;48.358;10.958;2022-12-13T04:30:18;30.98;;;14.77;;
6497;SDS011;3282;48.358;10.958;2022-12-13T04:32:44;35.05;;;15.48;;
6497;SDS011;3282;48.358;10.958;2022-12-13T04:35:11;32.45;;;15.32;;
6497;SDS011;3282;48.358;10.958;2022-12-13T04:37:38;35.28;;;16.00;;
6497;SDS011;3282;48.358;10.958;2022-12-13T04:40:08;32.88;;;14.90;;
6497;SDS011;3282;48.358;10.958;2022-12-13T04:42:35;34.40;;;15.77;;
6497;SDS011;3282;48.358;10.958;2022-12-13T04:45:02;36.70;;;15.32;;
6497;SDS011;3282;48.358;10.958;2022-12-13T04:47:29;34.67;;;14.90;;
6497;SDS011;3282;48.358;10.958;2022-12-13T04:49:55;33.13;;;15.27;;
6497;SDS011;3282;48.358;10.958;2022-12-13T04:52:22;32.22;;;14.30;;
6497;SDS011;3282;48.358;10.958;2022-12-13T04:54:49;32.00;;;14.98;;
6497;SDS011;3282;48.358;10.958;2022-12-13T04:57:21;37.20;;;15.73;;
6497;SDS011;3282;48.358;10.958;2022-12-13T04:59:48;36.20;;;15.18;;
6497;SDS011;3282;48.358;10.958;2022-12-13T05:02:15;30.70;;;14.18;;
6497;SDS011;3282;48.358;10.958;2022-12-13T05:04:49;34.35;;;15.20;;
6497;SDS011;3282;48.358;10.958;2022-12-13T05:07:19;33.95;;;15.43;;
6497;SDS011;3282;48.358;10.958;2022-12-13T05:09:46;34.25;;;15.00;;
6497;SDS011;3282;48.358;10.958;2022-12-13T05:12:12;33.90;;;15.00;;
6497;SDS011;3282;48.358;10.958;2022-12-13T05:14:48;32.15;;;15.48;;
6497;SDS011;3282;48.358;10.958;2022-12-13T05:17:16;33.50;;;14.63;;
6497;SDS011;3282;48.358;10.958;2022-12-13T05:19:42;33.50;;;15.07;;
6497;SDS011;3282;48.358;10.958;2022-12-13T05:22:09;35.80;;;15.50;;
6497;SDS011;3282;48.358;10.958;2022-12-13T05:24:46;34.25;;;14.85;;
6497;SDS011;3282;48.358;10.958;2022-12-13T05:27:13;32.88;;;15.27;;
6497;SDS011;3282;48.358;10.958;2022-12-13T05:29:54;35.90;;;15.70;;
6497;SDS011;3282;48.358;10.958;2022-12-13T05:32:33;34.08;;;15.10;;
6497;SDS011;3282;48.358;10.958;2022-12-13T05:35:13;30.10;;;14.15;;
6497;SDS011;3282;48.358;10.958;2022-12-13T05:37:52;31.58;;;14.52;;
6497;SDS011;3282;48.358;10.958;2022-12-13T05:40:24;31.58;;;15.07;;
6497;SDS011;3282;48.358;10.958;2022-12-13T05:42:51;33.10;;;15.00;;
6497;SDS011;3282;48.358;10.958;2022-12-13T05:45:27;32.67;;;14.57;;
6497;SDS011;3282;48.358;10.958;2022-12-13T05:47:54;35.78;;;15.43;;
6497;SDS011;3282;48.358;10.958;2022-12-13T05:50:21;35.40;;;15.05;;
6497;SDS011;3282;48.358;10.958;2022-12-13T05:52:48;35.42;;;15.30;;
6497;SDS011;3282;48.358;10.958;2022-12-13T05:55:15;34.97;;;15.23;;
6497;SDS011;3282;48.358;10.958;2022-12-13T05:57:42;33.38;;;15.55;;
6497;SDS011;3282;48.358;10.958;2022-12-13T06:00:16;37.85;;;16.13;;
6497;SDS011;3282;48.358;10.958;2022-12-13T06:02:56;35.55;;;15.70;;
6497;SDS011;3282;48.358;10.958;2022-12-13T06:05:27;34.45;;;15.23;;
6497;SDS011;3282;48.358;10.958;2022-12-13T06:07:54;33.42;;;15.43;;
6497;SDS011;3282;48.358;10.958;2022-12-13T06:10:23;34.83;;;15.90;;
6497;SDS011;3282;48.358;10.958;2022-12-13T06:12:49;39.50;;;17.00;;
6497;SDS011;3282;48.358;10.958;2022-12-13T06:15:16;35.47;;;15.05;;
6497;SDS011;3282;48.358;10.958;2022-12-13T06:17:47;40.65;;;16.05;;
6497;SDS011;3282;48.358;10.958;2022-12-13T06:20:14;34.10;;;16.13;;
6497;SDS011;3282;48.358;10.958;2022-12-13T06:22:50;37.08;;;16.15;;
6497;SDS011;3282;48.358;10.958;2022-12-13T06:25:19;40.55;;;16.73;;
6497;SDS011;3282;48.358;10.958;2022-12-13T06:27:57;43.45;;;18.13;;
6497;SDS011;3282;48.358;10.958;2022-12-13T06:30:27;39.88;;;16.70;;
6497;SDS011;3282;48.358;10.958;2022-12-13T06:32:55;43.25;;;17.75;;
6497;SDS011;3282;48.358;10.958;2022-12-13T06:35:22;42.97;;;17.73;;
6497;SDS011;3282;48.358;10.958;2022-12-13T06:37:55;38.72;;;17.15;;
6497;SDS011;3282;48.358;10.958;2022-12-13T06:40:30;41.85;;;17.48;;
6497;SDS011;3282;48.358;10.958;2022-12-13T06:42:57;44.67;;;17.88;;
6497;SDS011;3282;48.358;10.958;2022-12-13T06:45:24;45.60;;;18.10;;
6497;SDS011;3282;48.358;10.958;2022-12-13T06:47:51;39.38;;;16.65;;
6497;SDS011;3282;48.358;10.958;2022-12-13T06:50:17;40.85;;;17.42;;
6497;SDS011;3282;48.358;10.958;2022-12-13T06:52:44;43.95;;;17.42;;
6497;SDS011;3282;48.358;10.958;2022-12-13T06:55:11;37.47;;;15.30;;
6497;SDS011;3282;48.358;10.958;2022-12-13T06:57:38;42.28;;;17.70;;
6497;SDS011;3282;48.358;10.958;2022-12-13T07:00:07;40.85;;;17.75;;
6497;SDS011;3282;48.358;10.958;2022-12-13T07:02:34;47.75;;;18.30;;
6497;SDS011;3282;48.358;10.958;2022-12-13T07:05:01;42.63;;;17.75;;
6497;SDS011;3282;48.358;10.958;2022-12-13T07:07:27;43.97;;;17.27;;
6497;SDS011;3282;48.358;10.958;2022-12-13T07:09:54;42.17;;;16.92;;
6497;SDS011;3282;48.358;10.958;2022-12-13T07:12:21;45.25;;;17.77;;
6497;SDS011;3282;48.358;10.958;2022-12-13T07:14:48;43.65;;;17.70;;
6497;SDS011;3282;48.358;10.958;2022-12-13T07:17:15;42.10;;;17.60;;
6497;SDS011;3282;48.358;10.958;2022-12-13T07:19:58;43.13;;;18.00;;
6497;SDS011;3282;48.358;10.958;2022-12-13T07:22:26;42.58;;;17.15;;
6497;SDS011;3282;48.358;10.958;2022-12-13T07:24:53;48.22;;;19.80;;
6497;SDS011;3282;48.358;10.958;2022-12-13T07:27:19;42.28;;;18.40;;
6497;SDS011;3282;48.358;10.958;2022-12-13T07:29:46;44.10;;;18.17;;
6497;SDS011;3282;48.358;10.958;2022-12-13T07:32:12;39.20;;;17.95;;
6497;SDS011;3282;48.358;10.958;2022-12-13T07:34:39;45.00;;;18.42;;
6497;SDS011;3282;48.358;10.958;2022-12-13T07:37:07;44.10;;;17.88;;
6497;SDS011;3282;48.358;10.958;2022-12-13T07:39:54;43.90;;;18.33;;
6497;SDS011;3282;48.358;10.958;2022-12-13T07:42:28;41.03;;;18.52;;
6497;SDS011;3282;48.358;10.958;2022-12-13T07:44:55;44.83;;;18.98;;
6497;SDS011;3282;48.358;10.958;2022-12-13T07:47:22;43.97;;;18.38;;
6497;SDS011;3282;48.358;10.958;2022-12-13T07:49:48;43.72;;;19.45;;
6497;SDS011;3282;48.358;10.958;2022-12-13T07:52:15;46.42;;;19.48;;
6497;SDS011;3282;48.358;10.958;2022-12-13T07:54:42;47.50;;;19.35;;
6497;SDS011;3282;48.358;10.958;2022-12-13T07:57:09;43.10;;;18.30;;
6497;SDS011;3282;48.358;10.958;2022-12-13T07:59:36;41.47;;;17.77;;
6497;SDS011;3282;48.358;10.958;2022-12-13T08:02:02;43.70;;;17.95;;
6497;SDS011;3282;48.358;10.958;2022-12-13T08:04:29;42.00;;;17.65;;
6497;SDS011;3282;48.358;10.958;2022-12-13T08:07:06;42.05;;;18.38;;
6497;SDS011;3282;48.358;10.958;2022-12-13T08:09:34;44.97;;;18.05;;
6497;SDS011;3282;48.358;10.958;2022-12-13T08:12:01;43.03;;;18.00;;
6497;SDS011;3282;48.358;10.958;2022-12-13T08:14:28;41.70;;;17.55;;
6497;SDS011;3282;48.358;10.958;2022-12-13T08:16:55;43.63;;;17.40;;
6497;SDS011;3282;48.358;10.958;2022-12-13T08:19:22;44.00;;;17.67;;
6497;SDS011;3282;48.358;10.958;2022-12-13T08:21:49;42.88;;;17.50;;
6497;SDS011;3282;48.358;10.958;2022-12-13T08:24:22;40.70;;;16.35;;
6497;SDS011;3282;48.358;10.958;2022-12-13T08:26:52;42.47;;;18.27;;
6497;SDS011;3282;48.358;10.958;2022-12-13T08:29:19;43.17;;;17.67;;
6497;SDS011;3282;48.358;10.958;2022-12-13T08:31:59;40.10;;;16.30;;
6497;SDS011;3282;48.358;10.958;2022-12-13T08:34:27;35.72;;;16.10;;
6497;SDS011;3282;48.358;10.958;2022-12-13T08:36:54;37.28;;;16.70;;
6497;SDS011;3282;48.358;10.958;2022-12-13T08:39:28;39.90;;;16.00;;
6497;SDS011;3282;48.358;10.958;2022-12-13T08:42:00;40.20;;;16.98;;
6497;SDS011;3282;48.358;10.958;2022-12-13T08:47:10;41.28;;;16.38;;
6497;SDS011;3282;48.358;10.958;2022-12-13T08:49:49;46.35;;;16.73;;
6497;SDS011;3282;48.358;10.958;2022-12-13T08:52:16;40.15;;;16.33;;
6497;SDS011;3282;48.358;10.958;2022-12-13T08:54:43;37.22;;;16.20;;
6497;SDS011;3282;48.358;10.958;2022-12-13T08:57:09;40.60;;;16.58;;
6497;SDS011;3282;48.358;10.958;2022-12-13T08:59:36;39.75;;;15.70;;
6497;SDS011;3282;48.358;10.958;2022-12-13T09:02:02;42.38;;;17.67;;
6497;SDS011;3282;48.358;10.958;2022-12-13T09:04:30;47.65;;;18.38;;
6497;SDS011;3282;48.358;10.958;2022-12-13T09:06:57;43.28;;;15.70;;
6497;SDS011;3282;48.358;10.958;2022-12-13T09:09:27;42.17;;;16.17;;
6497;SDS011;3282;48.358;10.958;2022-12-13T09:11:55;41.85;;;17.23;;
6497;SDS011;3282;48.358;10.958;2022-12-13T09:14:25;45.85;;;18.27;;
6497;SDS011;3282;48.358;10.958;2022-12-13T09:16:59;37.35;;;14.02;;
6497;SDS011;3282;48.358;10.958;2022-12-13T09:19:29;43.22;;;17.02;;
6497;SDS011;3282;48.358;10.958;2022-12-13T09:22:03;45.10;;;18.42;;
6497;SDS011;3282;48.358;10.958;2022-12-13T09:24:30;45.55;;;17.38;;
6497;SDS011;3282;48.358;10.958;2022-12-13T09:27:02;43.55;;;16.95;;
6497;SDS011;3282;48.358;10.958;2022-12-13T09:29:35;45.00;;;18.13;;
6497;SDS011;3282;48.358;10.958;2022-12-13T09:32:02;44.05;;;17.55;;
6497;SDS011;3282;48.358;10.958;2022-12-13T09:34:29;42.83;;;16.85;;
6497;SDS011;3282;48.358;10.958;2022-12-13T09:36:58;42.95;;;17.42;;
6497;SDS011;3282;48.358;10.958;2022-12-13T09:39:27;44.22;;;16.67;;
6497;SDS011;3282;48.358;10.958;2022-12-13T09:41:55;42.38;;;16.50;;
6497;SDS011;3282;48.358;10.958;2022-12-13T09:44:33;43.67;;;18.35;;
6497;SDS011;3282;48.358;10.958;2022-12-13T09:47:13;41.67;;;16.95;;
6497;SDS011;3282;48.358;10.958;2022-12-13T09:49:51;40.92;;;16.90;;
6497;SDS011;3282;48.358;10.958;2022-12-13T09:52:20;40.60;;;17.17;;
6497;SDS011;3282;48.358;10.958;2022-12-13T09:54:49;36.45;;;16.00;;
6497;SDS011;3282;48.358;10.958;2022-12-13T09:57:20;45.50;;;18.02;;
6497;SDS011;3282;48.358;10.958;2022-12-13T10:00:05;40.55;;;16.38;;
6497;SDS011;3282;48.358;10.958;2022-12-13T10:02:42;47.08;;;17.33;;
6497;SDS011;3282;48.358;10.958;2022-12-13T10:08:07;70.35;;;25.48;;
6497;SDS011;3282;48.358;10.958;2022-12-13T10:10:38;44.30;;;18.55;;
6497;SDS011;3282;48.358;10.958;2022-12-13T10:15:41;44.53;;;18.15;;
6497;SDS011;3282;48.358;10.958;2022-12-13T10:18:13;42.60;;;18.58;;
6497;SDS011;3282;48.358;10.958;2022-12-13T10:20:45;38.58;;;16.30;;
6497;SDS011;3282;48.358;10.958;2022-12-13T10:23:14;35.10;;;15.70;;
6497;SDS011;3282;48.358;10.958;2022-12-13T10:26:01;41.70;;;18.17;;
6497;SDS011;3282;48.358;10.958;2022-12-13T10:28:49;41.85;;;17.70;;
6497;SDS011;3282;48.358;10.958;2022-12-13T10:31:18;40.33;;;16.65;;
6497;SDS011;3282;48.358;10.958;2022-12-13T10:33:50;42.97;;;17.58;;
6497;SDS011;3282;48.358;10.958;2022-12-13T10:38:58;38.78;;;17.02;;
6497;SDS011;3282;48.358;10.958;2022-12-13T10:41:34;34.47;;;14.30;;
6497;SDS011;3282;48.358;10.958;2022-12-13T10:46:37;33.47;;;15.13;;
6497;SDS011;3282;48.358;10.958;2022-12-13T10:49:21;33.60;;;15.30;;
6497;SDS011;3282;48.358;10.958;2022-12-13T10:51:50;33.08;;;14.68;;
6497;SDS011;3282;48.358;10.958;2022-12-13T10:54:26;35.13;;;14.88;;
6497;SDS011;3282;48.358;10.958;2022-12-13T10:57:04;33.83;;;14.75;;
6497;SDS011;3282;48.358;10.958;2022-12-13T10:59:36;29.95;;;12.93;;
6497;SDS011;3282;48.358;10.958;2022-12-13T11:05:26;29.23;;;13.63;;
6497;SDS011;3282;48.358;10.958;2022-12-13T11:08:15;29.20;;;12.23;;
6497;SDS011;3282;48.358;10.958;2022-12-13T11:11:01;29.33;;;14.10;;
6497;SDS011;3282;48.358;10.958;2022-12-13T11:13:36;30.60;;;14.43;;
6497;SDS011;3282;48.358;10.958;2022-12-13T11:16:19;28.50;;;13.25;;
6497;SDS011;3282;48.358;10.958;2022-12-13T11:18:51;30.02;;;14.40;;
6497;SDS011;3282;48.358;10.958;2022-12-13T11:21:24;34.83;;;14.82;;
6497;SDS011;3282;48.358;10.958;2022-12-13T11:23:52;30.20;;;13.55;;
6497;SDS011;3282;48.358;10.958;2022-12-13T11:26:27;29.75;;;13.23;;
6497;SDS011;3282;48.358;10.958;2022-12-13T11:40:37;31.08;;;13.70;;
6497;SDS011;3282;48.358;10.958;2022-12-13T11:46:05;34.47;;;13.60;;
6497;SDS011;3282;48.358;10.958;2022-12-13T11:48:47;31.55;;;13.85;;
6497;SDS011;3282;48.358;10.958;2022-12-13T11:51:23;26.15;;;12.38;;
6497;SDS011;3282;48.358;10.958;2022-12-13T11:53:55;29.58;;;13.48;;
6497;SDS011;3282;48.358;10.958;2022-12-13T11:56:27;33.67;;;13.35;;
6497;SDS011;3282;48.358;10.958;2022-12-13T12:05:04;29.65;;;13.60;;
6497;SDS011;3282;48.358;10.958;2022-12-13T12:10:39;29.48;;;13.05;;
6497;SDS011;3282;48.358;10.958;2022-12-13T12:17:02;31.17;;;12.85;;
6497;SDS011;3282;48.358;10.958;2022-12-13T12:19:17;29.48;;;13.98;;
6497;SDS011;3282;48.358;10.958;2022-12-13T12:43:52;25.65;;;12.68;;
6497;SDS011;3282;48.358;10.958;2022-12-13T12:46:30;29.52;;;14.25;;
6497;SDS011;3282;48.358;10.958;2022-12-13T12:55:50;30.65;;;14.20;;
6497;SDS011;3282;48.358;10.958;2022-12-13T12:58:29;30.83;;;13.82;;
6497;SDS011;3282;48.358;10.958;2022-12-13T13:03:54;25.95;;;11.98;;
6497;SDS011;3282;48.358;10.958;2022-12-13T13:06:32;29.67;;;14.00;;
6497;SDS011;3282;48.358;10.958;2022-12-13T13:09:06;26.98;;;13.98;;
6497;SDS011;3282;48.358;10.958;2022-12-13T13:11:38;27.77;;;13.57;;
6497;SDS011;3282;48.358;10.958;2022-12-13T13:16:54;29.98;;;14.73;;
6497;SDS011;3282;48.358;10.958;2022-12-13T13:21:59;31.40;;;14.35;;
6497;SDS011;3282;48.358;10.958;2022-12-13T13:24:31;35.00;;;17.33;;
6497;SDS011;3282;48.358;10.958;2022-12-13T13:29:37;31.77;;;14.93;;
6497;SDS011;3282;48.358;10.958;2022-12-13T13:32:20;34.40;;;14.45;;
6497;SDS011;3282;48.358;10.958;2022-12-13T13:38:07;56.70;;;23.58;;
6497;SDS011;3282;48.358;10.958;2022-12-13T13:40:47;34.42;;;15.75;;
6497;SDS011;3282;48.358;10.958;2022-12-13T13:43:14;66.20;;;31.35;;
6497;SDS011;3282;48.358;10.958;2022-12-13T13:54:02;29.60;;;13.30;;
6497;SDS011;3282;48.358;10.958;2022-12-13T14:04:52;28.45;;;13.90;;
6497;SDS011;3282;48.358;10.958;2022-12-13T14:16:22;28.55;;;13.13;;
6497;SDS011;3282;48.358;10.958;2022-12-13T14:27:17;27.08;;;12.48;;
6497;SDS011;3282;48.358;10.958;2022-12-13T14:29:48;25.85;;;12.13;;
6497;SDS011;3282;48.358;10.958;2022-12-13T14:32:25;26.50;;;12.50;;
6497;SDS011;3282;48.358;10.958;2022-12-13T14:34:55;27.13;;;12.70;;
6497;SDS011;3282;48.358;10.958;2022-12-13T14:37:30;24.70;;;12.18;;
6497;SDS011;3282;48.358;10.958;2022-12-13T14:40:21;28.23;;;12.93;;
6497;SDS011;3282;48.358;10.958;2022-12-13T14:42:52;25.50;;;12.85;;
6497;SDS011;3282;48.358;10.958;2022-12-13T14:45:26;26.25;;;12.82;;
6497;SDS011;3282;48.358;10.958;2022-12-13T14:48:11;29.15;;;12.80;;
6497;SDS011;3282;48.358;10.958;2022-12-13T14:50:40;26.30;;;12.95;;
6497;SDS011;3282;48.358;10.958;2022-12-13T14:53:19;25.40;;;12.15;;
6497;SDS011;3282;48.358;10.958;2022-12-13T14:56:08;31.45;;;14.90;;
6497;SDS011;3282;48.358;10.958;2022-12-13T14:58:58;29.23;;;14.25;;
6497;SDS011;3282;48.358;10.958;2022-12-13T15:01:36;32.00;;;13.82;;
6497;SDS011;3282;48.358;10.958;2022-12-13T15:06:59;28.50;;;13.93;;
6497;SDS011;3282;48.358;10.958;2022-12-13T15:09:39;31.88;;;14.18;;
6497;SDS011;3282;48.358;10.958;2022-12-13T15:12:14;32.67;;;14.65;;
6497;SDS011;3282;48.358;10.958;2022-12-13T15:15:04;31.13;;;14.27;;
6497;SDS011;3282;48.358;10.958;2022-12-13T15:17:34;35.85;;;14.23;;
6497;SDS011;3282;48.358;10.958;2022-12-13T15:22:48;31.38;;;14.77;;
6497;SDS011;3282;48.358;10.958;2022-12-13T15:25:31;33.90;;;15.95;;
6497;SDS011;3282;48.358;10.958;2022-12-13T15:27:59;33.85;;;15.30;;
6497;SDS011;3282;48.358;10.958;2022-12-13T15:30:30;33.50;;;15.52;;
6497;SDS011;3282;48.358;10.958;2022-12-13T15:35:30;33.22;;;15.00;;
6497;SDS011;3282;48.358;10.958;2022-12-13T15:37:59;35.78;;;15.90;;
6497;SDS011;3282;48.358;10.958;2022-12-13T15:40:26;33.33;;;15.43;;
6497;SDS011;3282;48.358;10.958;2022-12-13T15:42:52;32.83;;;14.32;;
6497;SDS011;3282;48.358;10.958;2022-12-13T15:45:23;33.35;;;15.73;;
6497;SDS011;3282;48.358;10.958;2022-12-13T15:47:58;32.42;;;15.05;;
6497;SDS011;3282;48.358;10.958;2022-12-13T15:50:43;34.20;;;16.05;;
6497;SDS011;3282;48.358;10.958;2022-12-13T15:53:24;34.30;;;15.35;;
6497;SDS011;3282;48.358;10.958;2022-12-13T15:55:53;40.88;;;18.30;;
6497;SDS011;3282;48.358;10.958;2022-12-13T15:58:24;39.80;;;19.02;;
6497;SDS011;3282;48.358;10.958;2022-12-13T16:00:52;38.40;;;16.60;;
6497;SDS011;3282;48.358;10.958;2022-12-13T16:03:20;35.67;;;15.85;;
6497;SDS011;3282;48.358;10.958;2022-12-13T16:05:50;44.08;;;16.30;;
6497;SDS011;3282;48.358;10.958;2022-12-13T16:08:23;41.33;;;17.27;;
6497;SDS011;3282;48.358;10.958;2022-12-13T16:10:53;46.38;;;16.92;;
6497;SDS011;3282;48.358;10.958;2022-12-13T16:13:30;39.28;;;17.15;;
6497;SDS011;3282;48.358;10.958;2022-12-13T16:18:43;34.88;;;16.50;;
6497;SDS011;3282;48.358;10.958;2022-12-13T16:21:11;35.28;;;15.85;;
6497;SDS011;3282;48.358;10.958;2022-12-13T16:23:39;40.85;;;18.15;;
6497;SDS011;3282;48.358;10.958;2022-12-13T16:26:14;36.08;;;16.25;;
6497;SDS011;3282;48.358;10.958;2022-12-13T16:28:45;40.90;;;16.13;;
6497;SDS011;3282;48.358;10.958;2022-12-13T16:31:16;37.05;;;16.52;;
6497;SDS011;3282;48.358;10.958;2022-12-13T16:33:48;35.72;;;15.90;;
6497;SDS011;3282;48.358;10.958;2022-12-13T16:36:15;37.63;;;16.63;;
6497;SDS011;3282;48.358;10.958;2022-12-13T16:38:41;44.30;;;17.90;;
6497;SDS011;3282;48.358;10.958;2022-12-13T16:41:08;36.38;;;17.00;;
6497;SDS011;3282;48.358;10.958;2022-12-13T16:43:36;37.72;;;16.60;;
6497;SDS011;3282;48.358;10.958;2022-12-13T16:46:11;38.88;;;17.70;;
6497;SDS011;3282;48.358;10.958;2022-12-13T16:49:00;40.28;;;16.55;;
6497;SDS011;3282;48.358;10.958;2022-12-13T16:51:30;38.58;;;17.77;;
6497;SDS011;3282;48.358;10.958;2022-12-13T16:53:57;36.53;;;16.58;;
6497;SDS011;3282;48.358;10.958;2022-12-13T16:56:23;33.80;;;14.85;;
6497;SDS011;3282;48.358;10.958;2022-12-13T16:58:50;43.65;;;20.20;;
6497;SDS011;3282;48.358;10.958;2022-12-13T17:01:17;39.08;;;18.42;;
6497;SDS011;3282;48.358;10.958;2022-12-13T17:03:45;41.58;;;18.23;;
6497;SDS011;3282;48.358;10.958;2022-12-13T17:06:12;35.15;;;16.33;;
6497;SDS011;3282;48.358;10.958;2022-12-13T17:08:40;33.80;;;15.77;;
6497;SDS011;3282;48.358;10.958;2022-12-13T17:11:06;33.20;;;15.23;;
6497;SDS011;3282;48.358;10.958;2022-12-13T17:13:41;32.42;;;14.63;;
6497;SDS011;3282;48.358;10.958;2022-12-13T17:16:09;33.65;;;14.48;;
6497;SDS011;3282;48.358;10.958;2022-12-13T17:18:36;34.80;;;15.20;;
6497;SDS011;3282;48.358;10.958;2022-12-13T17:21:06;33.53;;;15.77;;
6497;SDS011;3282;48.358;10.958;2022-12-13T17:23:33;33.25;;;15.80;;
6497;SDS011;3282;48.358;10.958;2022-12-13T17:26:07;33.13;;;15.32;;
6497;SDS011;3282;48.358;10.958;2022-12-13T17:28:35;35.47;;;15.60;;
6497;SDS011;3282;48.358;10.958;2022-12-13T17:31:06;33.58;;;16.50;;
6497;SDS011;3282;48.358;10.958;2022-12-13T17:33:35;34.72;;;15.40;;
6497;SDS011;3282;48.358;10.958;2022-12-13T17:36:05;34.65;;;14.80;;
6497;SDS011;3282;48.358;10.958;2022-12-13T17:38:33;31.20;;;14.25;;
6497;SDS011;3282;48.358;10.958;2022-12-13T17:40:59;34.03;;;15.57;;
6497;SDS011;3282;48.358;10.958;2022-12-13T17:43:26;33.83;;;15.05;;
6497;SDS011;3282;48.358;10.958;2022-12-13T17:46:01;33.42;;;14.40;;